sensor_id;sensor_type;location;lat;lon;timestamp;P1;durP1;ratioP1;P2;durP2;ratioP2
39308;SDS011;26019;47.510;19.122;2024-02-23T00:02:08;4.13;;;2.15;;
39308;SDS011;26019;47.510;19.122;2024-02-23T00:12:10;7.82;;;2.13;;
39308;SDS011;26019;47.510;19.122;2024-02-23T00:22:12;3.93;;;2.53;;
39308;SDS011;26019;47.510;19.122;2024-02-23T00:32:15;3.53;;;2.13;;
39308;SDS011;26019;47.510;19.122;2024-02-23T00:42:17;3.20;;;2.13;;
39308;SDS011;26019;47.510;19.122;2024-02-23T00:52:24;3.90;;;2.53;;
39308;SDS011;26019;47.510;19.122;2024-02-23T01:02:27;5.47;;;2.70;;
39308;SDS011;26019;47.510;19.122;2024-02-23T01:12:31;2.55;;;2.10;;
39308;SDS011;26019;47.510;19.122;2024-02-23T01:22:34;3.67;;;2.25;;
39308;SDS011;26019;47.510;19.122;2024-02-23T01:32:35;5.45;;;2.40;;
39308;SDS011;26019;47.510;19.122;2024-02-23T01:42:40;3.45;;;2.28;;
39308;SDS011;26019;47.510;19.122;2024-02-23T01:52:42;6.35;;;2.88;;
39308;SDS011;26019;47.510;19.122;2024-02-23T02:02:44;3.87;;;2.67;;
39308;SDS011;26019;47.510;19.122;2024-02-23T02:12:48;4.90;;;2.60;;
39308;SDS011;26019;47.510;19.122;2024-02-23T02:22:52;5.07;;;2.60;;
39308;SDS011;26019;47.510;19.122;2024-02-23T02:32:54;4.03;;;2.10;;
39308;SDS011;26019;47.510;19.122;2024-02-23T02:42:57;3.17;;;2.60;;
39308;SDS011;26019;47.510;19.122;2024-02-23T02:52:59;2.78;;;2.45;;
39308;SDS011;26019;47.510;19.122;2024-02-23T03:03:01;4.18;;;2.60;;
39308;SDS011;26019;47.510;19.122;2024-02-23T03:13:03;4.05;;;3.08;;
39308;SDS011;26019;47.510;19.122;2024-02-23T03:33:10;4.68;;;3.00;;
39308;SDS011;26019;47.510;19.122;2024-02-23T03:43:12;5.43;;;3.30;;
39308;SDS011;26019;47.510;19.122;2024-02-23T03:53:14;5.40;;;3.00;;
39308;SDS011;26019;47.510;19.122;2024-02-23T04:03:17;3.88;;;3.28;;
39308;SDS011;26019;47.510;19.122;2024-02-23T04:13:22;6.22;;;2.97;;
39308;SDS011;26019;47.510;19.122;2024-02-23T04:33:26;4.68;;;3.40;;
39308;SDS011;26019;47.510;19.122;2024-02-23T04:43:28;5.30;;;3.47;;
39308;SDS011;26019;47.510;19.122;2024-02-23T04:53:30;4.85;;;3.60;;
39308;SDS011;26019;47.510;19.122;2024-02-23T05:03:32;6.20;;;3.55;;
39308;SDS011;26019;47.510;19.122;2024-02-23T05:13:34;3.28;;;2.88;;
39308;SDS011;26019;47.510;19.122;2024-02-23T05:23:36;4.40;;;2.40;;
39308;SDS011;26019;47.510;19.122;2024-02-23T05:33:41;5.53;;;2.17;;
39308;SDS011;26019;47.510;19.122;2024-02-23T05:43:47;6.55;;;2.40;;
39308;SDS011;26019;47.510;19.122;2024-02-23T05:53:49;2.03;;;1.83;;
39308;SDS011;26019;47.510;19.122;2024-02-23T06:03:52;3.97;;;2.08;;
39308;SDS011;26019;47.510;19.122;2024-02-23T06:13:56;7.50;;;2.85;;
39308;SDS011;26019;47.510;19.122;2024-02-23T06:23:58;5.65;;;3.08;;
39308;SDS011;26019;47.510;19.122;2024-02-23T06:34:00;4.18;;;2.90;;
39308;SDS011;26019;47.510;19.122;2024-02-23T06:44:10;8.45;;;3.70;;
39308;SDS011;26019;47.510;19.122;2024-02-23T06:54:15;7.75;;;3.97;;
39308;SDS011;26019;47.510;19.122;2024-02-23T07:04:18;6.00;;;4.07;;
39308;SDS011;26019;47.510;19.122;2024-02-23T07:14:20;6.85;;;3.78;;
39308;SDS011;26019;47.510;19.122;2024-02-23T07:24:23;7.53;;;4.00;;
39308;SDS011;26019;47.510;19.122;2024-02-23T07:34:26;11.80;;;4.60;;
39308;SDS011;26019;47.510;19.122;2024-02-23T07:44:30;9.90;;;5.82;;
39308;SDS011;26019;47.510;19.122;2024-02-23T07:54:33;14.13;;;5.78;;
39308;SDS011;26019;47.510;19.122;2024-02-23T08:04:37;9.57;;;5.85;;
39308;SDS011;26019;47.510;19.122;2024-02-23T08:14:41;7.13;;;5.03;;
39308;SDS011;26019;47.510;19.122;2024-02-23T08:24:44;8.35;;;4.53;;
39308;SDS011;26019;47.510;19.122;2024-02-23T08:34:46;6.80;;;4.75;;
39308;SDS011;26019;47.510;19.122;2024-02-23T08:44:48;13.40;;;4.33;;
39308;SDS011;26019;47.510;19.122;2024-02-23T08:54:51;6.78;;;4.20;;
39308;SDS011;26019;47.510;19.122;2024-02-23T09:04:53;6.93;;;3.83;;
39308;SDS011;26019;47.510;19.122;2024-02-23T09:14:55;4.97;;;4.00;;
39308;SDS011;26019;47.510;19.122;2024-02-23T09:24:59;6.05;;;4.10;;
39308;SDS011;26019;47.510;19.122;2024-02-23T09:35:01;5.93;;;3.70;;
39308;SDS011;26019;47.510;19.122;2024-02-23T09:45:07;6.32;;;4.05;;
39308;SDS011;26019;47.510;19.122;2024-02-23T09:55:14;6.20;;;3.40;;
39308;SDS011;26019;47.510;19.122;2024-02-23T10:05:15;6.28;;;4.30;;
39308;SDS011;26019;47.510;19.122;2024-02-23T10:25:21;6.72;;;3.38;;
39308;SDS011;26019;47.510;19.122;2024-02-23T10:35:26;5.65;;;3.03;;
39308;SDS011;26019;47.510;19.122;2024-02-23T10:45:32;5.95;;;3.00;;
39308;SDS011;26019;47.510;19.122;2024-02-23T10:55:36;12.05;;;4.57;;
39308;SDS011;26019;47.510;19.122;2024-02-23T11:05:39;6.88;;;4.18;;
39308;SDS011;26019;47.510;19.122;2024-02-23T11:15:49;8.07;;;4.05;;
39308;SDS011;26019;47.510;19.122;2024-02-23T11:25:59;7.18;;;4.65;;
39308;SDS011;26019;47.510;19.122;2024-02-23T11:36:21;6.50;;;3.92;;
39308;SDS011;26019;47.510;19.122;2024-02-23T11:46:29;26.35;;;4.72;;
39308;SDS011;26019;47.510;19.122;2024-02-23T11:56:34;4.15;;;2.83;;
39308;SDS011;26019;47.510;19.122;2024-02-23T12:06:38;5.60;;;3.28;;
39308;SDS011;26019;47.510;19.122;2024-02-23T12:16:40;4.53;;;3.00;;
39308;SDS011;26019;47.510;19.122;2024-02-23T12:26:42;4.47;;;3.33;;
39308;SDS011;26019;47.510;19.122;2024-02-23T12:36:47;6.80;;;4.13;;
39308;SDS011;26019;47.510;19.122;2024-02-23T12:46:50;9.57;;;4.38;;
39308;SDS011;26019;47.510;19.122;2024-02-23T12:56:52;13.87;;;7.20;;
39308;SDS011;26019;47.510;19.122;2024-02-23T13:06:54;7.23;;;5.43;;
39308;SDS011;26019;47.510;19.122;2024-02-23T13:16:56;8.30;;;5.50;;
39308;SDS011;26019;47.510;19.122;2024-02-23T13:26:58;9.90;;;6.63;;
39308;SDS011;26019;47.510;19.122;2024-02-23T13:37:00;12.27;;;7.47;;
39308;SDS011;26019;47.510;19.122;2024-02-23T13:47:01;10.60;;;7.20;;
39308;SDS011;26019;47.510;19.122;2024-02-23T13:57:05;8.83;;;5.80;;
39308;SDS011;26019;47.510;19.122;2024-02-23T14:07:09;9.57;;;5.90;;
39308;SDS011;26019;47.510;19.122;2024-02-23T14:17:12;9.13;;;6.70;;
39308;SDS011;26019;47.510;19.122;2024-02-23T14:27:16;13.25;;;7.95;;
39308;SDS011;26019;47.510;19.122;2024-02-23T14:37:18;10.93;;;6.72;;
39308;SDS011;26019;47.510;19.122;2024-02-23T14:47:20;13.98;;;7.75;;
39308;SDS011;26019;47.510;19.122;2024-02-23T14:57:36;12.80;;;8.52;;
39308;SDS011;26019;47.510;19.122;2024-02-23T15:07:40;12.83;;;8.60;;
39308;SDS011;26019;47.510;19.122;2024-02-23T15:17:42;11.43;;;7.63;;
39308;SDS011;26019;47.510;19.122;2024-02-23T15:27:48;17.65;;;7.45;;
39308;SDS011;26019;47.510;19.122;2024-02-23T15:37:50;13.00;;;6.97;;
39308;SDS011;26019;47.510;19.122;2024-02-23T15:47:58;17.00;;;7.77;;
39308;SDS011;26019;47.510;19.122;2024-02-23T15:58:04;11.20;;;7.50;;
39308;SDS011;26019;47.510;19.122;2024-02-23T16:08:08;11.97;;;6.93;;
39308;SDS011;26019;47.510;19.122;2024-02-23T16:18:12;11.13;;;7.07;;
39308;SDS011;26019;47.510;19.122;2024-02-23T16:28:16;12.45;;;7.10;;
39308;SDS011;26019;47.510;19.122;2024-02-23T16:38:18;10.73;;;8.07;;
39308;SDS011;26019;47.510;19.122;2024-02-23T16:48:22;12.00;;;8.07;;
